createdAt,value
2023-05-23T00:00:14.190Z,98.54
2023-05-23T00:03:04.581Z,98.45
2023-05-23T00:05:32.697Z,99.00
2023-05-23T00:08:01.844Z,99.15
2023-05-23T00:10:29.871Z,99.51
2023-05-23T00:12:58.230Z,99.88
2023-05-23T00:15:26.471Z,100.00
2023-05-23T00:17:54.663Z,100.00
2023-05-23T00:20:23.022Z,100.00
2023-05-23T00:22:50.810Z,100.00
2023-05-23T00:25:22.056Z,100.00
2023-05-23T00:27:49.804Z,100.00
2023-05-23T00:30:18.239Z,99.89
2023-05-23T00:32:46.034Z,100.00
2023-05-23T00:35:14.100Z,100.00
2023-05-23T00:37:41.783Z,100.00
2023-05-23T00:40:10.283Z,99.79
2023-05-23T00:42:37.992Z,98.89
2023-05-23T00:45:07.197Z,99.26
2023-05-23T00:47:35.236Z,99.64
2023-05-23T00:50:04.840Z,100.00
2023-05-23T00:52:32.960Z,100.00
2023-05-23T00:55:00.967Z,100.00
2023-05-23T00:57:29.308Z,100.00
2023-05-23T00:59:57.398Z,100.00
2023-05-23T01:02:25.614Z,100.00
2023-05-23T01:04:55.633Z,100.00
2023-05-23T01:07:23.607Z,100.00
2023-05-23T01:09:51.698Z,100.00
2023-05-23T01:12:41.135Z,100.00
2023-05-23T01:15:14.820Z,100.00
2023-05-23T01:17:56.745Z,100.00
2023-05-23T01:20:54.118Z,100.00
2023-05-23T01:23:46.127Z,100.00
2023-05-23T01:26:29.269Z,100.00
2023-05-23T01:29:22.674Z,100.00
2023-05-23T01:31:54.955Z,100.00
2023-05-23T01:34:23.183Z,100.00
2023-05-23T01:36:56.202Z,100.00
2023-05-23T01:39:24.248Z,100.00
2023-05-23T01:41:54.191Z,100.00
2023-05-23T01:44:22.511Z,100.00
2023-05-23T01:46:50.770Z,100.00
2023-05-23T01:49:20.636Z,100.00
2023-05-23T01:51:49.019Z,100.00
2023-05-23T01:54:19.864Z,100.00
2023-05-23T01:56:49.966Z,100.00
2023-05-23T01:59:17.873Z,100.00
2023-05-23T02:01:46.341Z,100.00
2023-05-23T02:04:14.766Z,100.00
2023-05-23T02:06:42.719Z,100.00
2023-05-23T02:09:14.149Z,100.00
2023-05-23T02:11:42.188Z,100.00
2023-05-23T02:14:11.300Z,100.00
2023-05-23T02:16:39.419Z,100.00
2023-05-23T02:19:07.279Z,100.00
2023-05-23T02:21:35.891Z,100.00
2023-05-23T02:24:04.523Z,100.00
2023-05-23T02:26:32.763Z,100.00
2023-05-23T02:29:00.948Z,100.00
2023-05-23T02:31:29.277Z,100.00
2023-05-23T02:33:57.079Z,100.00
2023-05-23T02:36:25.208Z,100.00
2023-05-23T02:38:52.927Z,100.00
2023-05-23T02:41:21.523Z,100.00
2023-05-23T02:43:49.418Z,100.00
2023-05-23T02:46:18.200Z,100.00
2023-05-23T02:48:46.027Z,100.00
2023-05-23T02:51:14.016Z,100.00
2023-05-23T02:53:41.930Z,100.00
2023-05-23T02:56:10.076Z,100.00
2023-05-23T02:58:37.758Z,100.00
2023-05-23T03:01:07.827Z,100.00
2023-05-23T03:03:36.596Z,100.00
2023-05-23T03:06:07.530Z,100.00
2023-05-23T03:08:35.476Z,100.00
2023-05-23T03:11:03.508Z,100.00
2023-05-23T03:13:31.432Z,100.00
2023-05-23T03:15:59.494Z,100.00
2023-05-23T03:18:27.516Z,100.00
2023-05-23T03:20:57.069Z,100.00
2023-05-23T03:23:25.240Z,100.00
2023-05-23T03:25:53.390Z,100.00
2023-05-23T03:28:22.001Z,99.46
2023-05-23T03:30:50.143Z,98.28
2023-05-23T03:33:17.962Z,96.31
2023-05-23T03:35:46.088Z,93.55
2023-05-23T03:38:13.989Z,89.89
2023-05-23T03:40:42.160Z,86.07
2023-05-23T03:43:10.074Z,83.30
2023-05-23T03:45:41.896Z,82.29
2023-05-23T03:48:13.958Z,82.03
2023-05-23T03:50:43.485Z,82.62
2023-05-23T03:53:12.726Z,82.91
2023-05-23T03:55:41.075Z,82.90
2023-05-23T03:58:08.980Z,82.68
2023-05-23T04:00:37.239Z,82.31
2023-05-23T04:03:08.915Z,82.29
2023-05-23T04:05:37.525Z,82.52
2023-05-23T04:08:05.432Z,82.39
2023-05-23T04:10:33.662Z,81.63
2023-05-23T04:13:01.537Z,80.03
2023-05-23T04:15:29.656Z,78.61
2023-05-23T04:18:07.572Z,74.13
2023-05-23T04:20:35.876Z,72.71
2023-05-23T04:23:03.799Z,72.06
2023-05-23T04:25:34.467Z,70.03
2023-05-23T04:28:11.007Z,63.86
2023-05-23T04:30:39.170Z,62.14
2023-05-23T04:33:08.028Z,61.17
2023-05-23T04:35:39.215Z,61.13
2023-05-23T04:38:07.577Z,61.49
2023-05-23T04:40:36.039Z,61.54
2023-05-23T04:43:42.795Z,61.11
2023-05-23T04:46:22.198Z,60.58
2023-05-23T04:48:56.510Z,60.39
2023-05-23T04:51:25.163Z,61.02
2023-05-23T04:53:57.169Z,61.23
2023-05-23T04:56:28.424Z,59.61
2023-05-23T04:58:56.457Z,58.47
2023-05-23T05:01:26.246Z,58.07
2023-05-23T05:03:54.844Z,57.72
2023-05-23T05:06:23.989Z,57.17
2023-05-23T05:08:53.139Z,57.02
2023-05-23T05:11:22.494Z,56.24
2023-05-23T05:13:50.240Z,55.84
2023-05-23T05:16:18.374Z,55.06
2023-05-23T05:18:46.485Z,53.21
2023-05-23T05:21:14.761Z,53.48
2023-05-23T05:23:43.673Z,53.86
2023-05-23T05:26:11.832Z,54.58
2023-05-23T05:28:39.670Z,54.59
2023-05-23T05:31:07.922Z,54.15
2023-05-23T05:33:37.743Z,54.17
2023-05-23T05:36:16.728Z,53.54
2023-05-23T05:38:46.286Z,52.94
2023-05-23T05:41:14.659Z,53.31
2023-05-23T05:43:49.744Z,53.18
2023-05-23T05:46:17.812Z,53.15
2023-05-23T05:48:47.355Z,52.84
2023-05-23T05:51:17.633Z,52.40
2023-05-23T05:53:46.448Z,51.21
2023-05-23T05:56:14.885Z,49.50
2023-05-23T05:58:42.788Z,48.51
2023-05-23T06:01:14.702Z,46.76
2023-05-23T06:03:43.754Z,46.52
2023-05-23T06:06:12.036Z,46.36
2023-05-23T06:08:41.633Z,45.00
2023-05-23T06:11:13.010Z,44.03
2023-05-23T06:13:40.763Z,43.62
2023-05-23T06:16:08.955Z,43.24
2023-05-23T06:18:36.798Z,42.74
2023-05-23T06:21:04.835Z,42.79
2023-05-23T06:23:34.577Z,42.02
2023-05-23T06:26:02.819Z,41.66
2023-05-23T06:28:30.564Z,41.66
2023-05-23T06:30:58.808Z,41.32
2023-05-23T06:33:26.582Z,40.86
2023-05-23T06:35:54.627Z,41.23
2023-05-23T06:38:22.680Z,40.50
2023-05-23T06:40:51.159Z,40.57
2023-05-23T06:43:19.820Z,41.41
2023-05-23T06:45:55.093Z,40.51
2023-05-23T06:48:22.919Z,39.09
2023-05-23T06:50:52.694Z,38.24
2023-05-23T06:53:22.175Z,37.92
2023-05-23T06:55:51.599Z,36.53
2023-05-23T06:58:25.229Z,35.27
2023-05-23T07:00:56.925Z,34.87
2023-05-23T07:03:31.703Z,33.71
2023-05-23T07:06:04.936Z,33.92
2023-05-23T07:08:33.036Z,32.98
2023-05-23T07:11:02.351Z,31.53
2023-05-23T07:13:37.955Z,29.75
2023-05-23T07:16:06.368Z,28.33
2023-05-23T07:18:38.820Z,25.56
2023-05-23T07:21:07.696Z,23.26
2023-05-23T07:23:35.484Z,21.99
2023-05-23T07:26:03.994Z,20.16
2023-05-23T07:28:42.045Z,19.35
2023-05-23T07:31:10.194Z,19.35
2023-05-23T07:33:39.208Z,16.87
2023-05-23T07:36:10.358Z,16.04
2023-05-23T07:38:38.200Z,15.69
2023-05-23T07:41:11.388Z,15.52
2023-05-23T07:43:41.351Z,15.64
2023-05-23T07:46:10.141Z,15.76
2023-05-23T07:48:39.053Z,15.27
2023-05-23T07:51:07.201Z,15.16
2023-05-23T07:53:39.995Z,14.79
2023-05-23T07:56:11.498Z,14.50
2023-05-23T07:58:41.847Z,14.48
2023-05-23T08:01:10.144Z,14.50
2023-05-23T08:03:58.238Z,14.08
2023-05-23T08:06:33.763Z,13.30
2023-05-23T08:09:06.841Z,13.31
2023-05-23T08:11:39.142Z,14.24
2023-05-23T08:14:07.984Z,13.42
2023-05-23T08:16:39.389Z,13.07
2023-05-23T08:19:12.615Z,12.92
2023-05-23T08:21:41.388Z,12.96
2023-05-23T08:24:09.403Z,12.39
2023-05-23T08:26:40.120Z,13.05
2023-05-23T08:29:11.264Z,12.46
2023-05-23T08:31:39.404Z,12.63
2023-05-23T08:34:08.383Z,12.64
2023-05-23T08:36:40.430Z,12.56
2023-05-23T08:39:13.842Z,12.66
2023-05-23T08:41:51.929Z,12.70
2023-05-23T08:44:19.839Z,12.56
2023-05-23T08:46:54.081Z,12.02
2023-05-23T08:49:42.164Z,12.48
2023-05-23T08:52:14.690Z,12.40
2023-05-23T08:54:46.274Z,12.25
2023-05-23T08:57:16.854Z,12.83
2023-05-23T08:59:51.898Z,13.25
2023-05-23T09:02:22.518Z,13.79
2023-05-23T09:04:53.859Z,12.91
2023-05-23T09:07:28.835Z,13.21
2023-05-23T09:09:56.700Z,12.93
2023-05-23T09:12:24.835Z,12.91
2023-05-23T09:14:52.967Z,13.08
2023-05-23T09:17:23.971Z,13.79
2023-05-23T09:19:53.183Z,13.55
2023-05-23T09:22:29.834Z,13.93
2023-05-23T09:25:03.143Z,13.90
2023-05-23T09:27:31.417Z,13.95
2023-05-23T09:30:05.576Z,13.48
2023-05-23T09:32:33.810Z,14.10
2023-05-23T09:35:07.074Z,14.39
2023-05-23T09:37:40.965Z,14.88
2023-05-23T09:40:11.074Z,14.45
2023-05-23T09:42:48.578Z,14.20
2023-05-23T09:45:17.253Z,14.31
2023-05-23T09:47:52.723Z,14.46
2023-05-23T09:50:21.757Z,14.51
2023-05-23T09:52:51.336Z,13.93
2023-05-23T09:55:19.649Z,14.17
2023-05-23T09:57:53.347Z,14.80
2023-05-23T10:00:21.683Z,15.33
2023-05-23T10:03:11.549Z,15.33
2023-05-23T10:05:48.772Z,15.01
2023-05-23T10:08:31.217Z,15.28
2023-05-23T10:11:01.685Z,15.62
2023-05-23T10:13:31.949Z,15.74
2023-05-23T10:16:38.879Z,16.86
2023-05-23T10:19:27.328Z,18.28
2023-05-23T10:22:01.506Z,19.84
2023-05-23T10:24:30.052Z,20.21
2023-05-23T10:26:59.412Z,20.73
2023-05-23T10:29:28.604Z,21.41
2023-05-23T10:31:57.802Z,21.52
2023-05-23T10:34:40.575Z,21.32
2023-05-23T10:37:12.540Z,21.85
2023-05-23T10:39:46.582Z,22.47
2023-05-23T10:42:22.361Z,22.58
2023-05-23T10:44:50.361Z,23.07
2023-05-23T10:47:30.309Z,22.71
2023-05-23T10:49:58.344Z,22.68
2023-05-23T10:52:27.116Z,22.94
2023-05-23T10:54:56.454Z,23.17
2023-05-23T10:57:27.929Z,22.92
2023-05-23T10:59:56.437Z,23.23
2023-05-23T11:02:29.344Z,22.79
2023-05-23T11:05:24.470Z,23.76
2023-05-23T11:08:09.557Z,23.34
2023-05-23T11:10:59.455Z,23.51
2023-05-23T11:13:47.767Z,23.27
2023-05-23T11:16:30.458Z,22.67
2023-05-23T11:19:17.150Z,23.00
2023-05-23T11:22:02.200Z,22.08
2023-05-23T11:24:52.765Z,22.16
2023-05-23T11:27:36.079Z,22.28
2023-05-23T11:30:15.864Z,22.30
2023-05-23T11:32:52.555Z,22.24
2023-05-23T11:35:21.390Z,22.42
2023-05-23T11:37:50.105Z,22.85
2023-05-23T11:40:34.045Z,23.38
2023-05-23T11:43:05.353Z,23.21
2023-05-23T11:45:34.424Z,23.43
2023-05-23T11:48:16.921Z,23.34
2023-05-23T11:50:53.257Z,23.71
2023-05-23T11:53:25.504Z,24.22
2023-05-23T11:56:00.648Z,24.51
2023-05-23T11:58:36.699Z,24.85
2023-05-23T12:01:09.756Z,25.27
2023-05-23T12:03:49.310Z,24.93
2023-05-23T12:06:20.810Z,25.09
2023-05-23T12:08:49.013Z,25.56
2023-05-23T12:11:17.836Z,25.53
2023-05-23T12:13:46.900Z,24.98
2023-05-23T12:16:17.916Z,25.05
2023-05-23T12:18:46.141Z,25.27
2023-05-23T12:21:13.806Z,25.26
2023-05-23T12:23:43.075Z,24.87
2023-05-23T12:26:10.946Z,24.96
2023-05-23T12:28:45.009Z,24.32
2023-05-23T12:31:21.433Z,24.38
2023-05-23T12:33:52.981Z,24.64
2023-05-23T12:36:29.598Z,24.32
2023-05-23T12:39:06.050Z,25.08
2023-05-23T12:41:34.478Z,24.82
2023-05-23T12:44:04.060Z,25.21
2023-05-23T12:46:31.816Z,25.38
2023-05-23T12:48:59.956Z,25.69
2023-05-23T12:51:27.684Z,25.22
2023-05-23T12:53:57.287Z,25.80
2023-05-23T12:56:25.108Z,26.18
2023-05-23T12:58:54.078Z,25.60
2023-05-23T13:01:22.361Z,26.54
2023-05-23T13:03:50.604Z,26.29
2023-05-23T13:06:18.367Z,26.13
2023-05-23T13:08:46.809Z,25.90
2023-05-23T13:11:14.617Z,26.01
2023-05-23T13:13:42.764Z,26.64
2023-05-23T13:16:10.600Z,26.03
2023-05-23T13:18:39.003Z,26.57
2023-05-23T13:21:07.339Z,26.16
2023-05-23T13:23:36.728Z,26.36
2023-05-23T13:26:04.970Z,26.04
2023-05-23T13:28:33.979Z,26.43
2023-05-23T13:31:03.475Z,26.48
2023-05-23T13:33:31.877Z,26.57
2023-05-23T13:35:59.653Z,26.60
2023-05-23T13:38:27.910Z,26.40
2023-05-23T13:40:55.792Z,26.05
2023-05-23T13:43:24.334Z,26.26
2023-05-23T13:45:52.750Z,26.59
2023-05-23T13:48:20.747Z,26.38
2023-05-23T13:50:48.655Z,26.70
2023-05-23T13:53:17.125Z,26.94
2023-05-23T13:55:48.124Z,26.99
2023-05-23T13:58:16.166Z,27.26
2023-05-23T14:00:44.239Z,27.69
2023-05-23T14:03:12.825Z,27.63
2023-05-23T14:05:40.619Z,28.13
2023-05-23T14:08:08.902Z,27.96
2023-05-23T14:10:36.590Z,27.96
2023-05-23T14:13:04.753Z,27.16
2023-05-23T14:15:34.501Z,27.47
2023-05-23T14:18:02.783Z,26.41
2023-05-23T14:20:30.716Z,26.61
2023-05-23T14:22:58.769Z,26.67
2023-05-23T14:25:26.611Z,26.75
2023-05-23T14:27:55.728Z,26.31
2023-05-23T14:30:23.662Z,26.35
2023-05-23T14:32:51.770Z,26.77
2023-05-23T14:35:19.623Z,26.10
2023-05-23T14:37:47.659Z,26.24
2023-05-23T14:40:16.391Z,26.51
2023-05-23T14:42:44.469Z,25.82
2023-05-23T14:45:12.424Z,25.73
2023-05-23T14:47:40.459Z,25.75
2023-05-23T14:50:08.872Z,25.59
2023-05-23T14:52:36.856Z,25.46
2023-05-23T14:55:04.881Z,26.08
2023-05-23T14:57:33.388Z,25.53
2023-05-23T15:00:03.284Z,25.19
2023-05-23T15:02:33.848Z,25.87
2023-05-23T15:05:01.912Z,25.34
2023-05-23T15:07:30.060Z,25.74
2023-05-23T15:09:58.190Z,25.54
2023-05-23T15:12:26.477Z,25.64
2023-05-23T15:14:54.623Z,25.64
2023-05-23T15:17:25.059Z,26.02
2023-05-23T15:19:56.963Z,25.99
2023-05-23T15:24:58.366Z,26.45
2023-05-23T15:27:26.415Z,26.41
2023-05-23T15:29:54.217Z,26.77
2023-05-23T15:32:22.576Z,26.70
2023-05-23T15:34:50.491Z,26.57
2023-05-23T15:37:18.832Z,26.80
2023-05-23T15:39:47.188Z,26.42
2023-05-23T15:42:15.758Z,26.66
2023-05-23T15:44:43.551Z,26.48
2023-05-23T15:47:11.774Z,26.56
2023-05-23T15:49:39.485Z,26.50
2023-05-23T15:52:07.564Z,26.70
2023-05-23T15:54:35.410Z,26.69
2023-05-23T15:57:03.496Z,27.07
2023-05-23T15:59:34.273Z,27.56
2023-05-23T16:02:06.171Z,27.69
2023-05-23T16:04:36.124Z,28.10
2023-05-23T16:07:04.960Z,28.42
2023-05-23T16:09:32.788Z,28.57
2023-05-23T16:12:00.804Z,28.76
2023-05-23T16:14:28.556Z,28.72
2023-05-23T16:16:56.529Z,29.03
2023-05-23T16:19:24.502Z,29.08
2023-05-23T16:21:52.492Z,28.72
2023-05-23T16:24:20.168Z,28.83
2023-05-23T16:26:48.172Z,28.71
2023-05-23T16:29:16.022Z,28.60
2023-05-23T16:31:44.135Z,28.93
2023-05-23T16:34:11.846Z,28.70
2023-05-23T16:36:40.392Z,28.64
2023-05-23T16:39:08.194Z,28.59
2023-05-23T16:41:36.150Z,28.91
2023-05-23T16:44:04.077Z,29.01
2023-05-23T16:46:32.612Z,28.70
2023-05-23T16:49:00.455Z,28.72
2023-05-23T16:51:28.464Z,29.18
2023-05-23T16:53:56.385Z,28.92
2023-05-23T16:56:24.443Z,29.09
2023-05-23T16:58:52.305Z,29.66
2023-05-23T17:01:20.501Z,29.98
2023-05-23T17:03:48.581Z,29.75
2023-05-23T17:06:16.773Z,29.93
2023-05-23T17:08:44.561Z,30.19
2023-05-23T17:11:12.570Z,30.58
2023-05-23T17:13:40.682Z,30.49
2023-05-23T17:16:08.928Z,30.96
2023-05-23T17:18:36.709Z,30.95
2023-05-23T17:21:04.756Z,31.69
2023-05-23T17:23:32.589Z,31.88
2023-05-23T17:26:00.639Z,32.04
2023-05-23T17:28:28.392Z,32.49
2023-05-23T17:30:56.692Z,32.93
2023-05-23T17:33:24.542Z,33.00
2023-05-23T17:35:52.563Z,33.38
2023-05-23T17:38:20.389Z,33.69
2023-05-23T17:40:48.738Z,34.07
2023-05-23T17:43:16.603Z,34.63
2023-05-23T17:45:44.670Z,35.14
2023-05-23T17:48:12.593Z,35.18
2023-05-23T17:50:40.730Z,35.44
2023-05-23T17:53:08.582Z,35.58
2023-05-23T17:55:36.559Z,36.17
2023-05-23T17:58:04.369Z,36.87
2023-05-23T18:00:32.539Z,37.41
2023-05-23T18:03:01.731Z,37.49
2023-05-23T18:05:29.781Z,38.00
2023-05-23T18:07:57.699Z,38.37
2023-05-23T18:10:26.263Z,38.54
2023-05-23T18:12:54.019Z,39.18
2023-05-23T18:15:22.456Z,39.41
2023-05-23T18:17:53.019Z,39.69
2023-05-23T18:20:21.637Z,40.19
2023-05-23T18:22:55.986Z,40.18
2023-05-23T18:25:27.635Z,40.67
2023-05-23T18:27:59.106Z,40.89
2023-05-23T18:30:27.988Z,41.41
2023-05-23T18:32:56.616Z,41.53
2023-05-23T18:35:25.845Z,41.55
2023-05-23T18:37:54.618Z,42.05
2023-05-23T18:40:24.262Z,42.03
2023-05-23T18:42:52.306Z,42.36
2023-05-23T18:45:20.531Z,42.47
2023-05-23T18:47:48.647Z,42.68
2023-05-23T18:50:16.877Z,42.77
2023-05-23T18:52:44.687Z,42.60
2023-05-23T18:55:12.955Z,42.86
2023-05-23T18:57:40.906Z,43.08
2023-05-23T19:00:09.659Z,42.93
2023-05-23T19:02:39.611Z,43.01
2023-05-23T19:05:08.269Z,42.93
2023-05-23T19:07:36.088Z,43.07
2023-05-23T19:10:04.399Z,43.12
2023-05-23T19:12:32.131Z,43.53
2023-05-23T19:15:00.161Z,43.57
2023-05-23T19:17:28.068Z,43.69
2023-05-23T19:19:56.133Z,43.57
2023-05-23T19:22:24.399Z,43.78
2023-05-23T19:24:52.409Z,44.00
2023-05-23T19:27:20.141Z,44.60
2023-05-23T19:29:48.193Z,44.65
2023-05-23T19:32:16.616Z,45.18
2023-05-23T19:34:44.811Z,45.44
2023-05-23T19:37:12.714Z,45.93
2023-05-23T19:39:45.719Z,46.17
2023-05-23T19:42:13.753Z,46.75
2023-05-23T19:44:41.850Z,47.10
2023-05-23T19:47:09.664Z,47.53
2023-05-23T19:49:37.818Z,48.02
2023-05-23T19:52:05.705Z,48.57
2023-05-23T19:54:33.885Z,48.90
2023-05-23T19:57:02.230Z,49.16
2023-05-23T19:59:30.691Z,49.30
2023-05-23T20:01:58.575Z,49.60
2023-05-23T20:04:28.513Z,49.94
2023-05-23T20:06:56.281Z,50.11
2023-05-23T20:09:24.639Z,50.54
2023-05-23T20:11:52.808Z,50.72
2023-05-23T20:14:20.887Z,50.78
2023-05-23T20:16:48.727Z,51.02
2023-05-23T20:19:17.128Z,51.26
2023-05-23T20:21:44.992Z,51.74
2023-05-23T20:24:15.074Z,52.08
2023-05-23T20:26:43.184Z,52.64
2023-05-23T20:29:11.286Z,53.08
2023-05-23T20:31:39.162Z,53.26
2023-05-23T20:34:07.465Z,53.43
2023-05-23T20:36:35.279Z,53.77
2023-05-23T20:39:03.251Z,54.11
2023-05-23T20:41:31.079Z,54.32
2023-05-23T20:44:01.615Z,54.27
2023-05-23T20:46:29.620Z,54.27
2023-05-23T20:48:57.752Z,54.00
2023-05-23T20:51:25.812Z,53.87
2023-05-23T20:53:53.734Z,53.44
2023-05-23T20:56:22.134Z,52.94
2023-05-23T20:58:50.142Z,53.21
2023-05-23T21:01:18.165Z,53.60
2023-05-23T21:03:46.203Z,53.58
2023-05-23T21:06:14.381Z,53.82
2023-05-23T21:08:42.521Z,54.00
2023-05-23T21:11:10.253Z,54.17
2023-05-23T21:13:39.889Z,54.46
2023-05-23T21:16:08.771Z,54.93
2023-05-23T21:18:36.796Z,55.60
2023-05-23T21:21:05.333Z,55.90
2023-05-23T21:23:33.384Z,56.18
2023-05-23T21:26:01.204Z,56.30
2023-05-23T21:28:29.315Z,56.59
2023-05-23T21:30:57.615Z,56.83
2023-05-23T21:33:25.727Z,57.00
2023-05-23T21:35:53.395Z,57.34
2023-05-23T21:38:21.394Z,57.17
2023-05-23T21:40:49.132Z,57.21
2023-05-23T21:43:17.197Z,57.40
2023-05-23T21:45:44.905Z,56.80
2023-05-23T21:48:13.310Z,56.76
2023-05-23T21:50:41.144Z,56.82
2023-05-23T21:53:09.643Z,57.01
2023-05-23T21:55:37.382Z,57.33
2023-05-23T21:58:05.727Z,57.69
2023-05-23T22:00:33.778Z,58.13
2023-05-23T22:03:01.860Z,58.21
2023-05-23T22:05:29.934Z,58.00
2023-05-23T22:07:57.848Z,57.51
2023-05-23T22:10:25.473Z,57.98
2023-05-23T22:12:53.401Z,57.58
2023-05-23T22:15:21.132Z,56.77
2023-05-23T22:17:49.043Z,56.99
2023-05-23T22:20:16.831Z,57.45
2023-05-23T22:22:44.811Z,57.79
2023-05-23T22:25:12.489Z,58.25
2023-05-23T22:27:40.563Z,57.89
2023-05-23T22:30:08.642Z,57.70
2023-05-23T22:32:36.611Z,57.64
2023-05-23T22:35:04.323Z,57.78
2023-05-23T22:37:32.106Z,58.24
2023-05-23T22:39:59.774Z,58.25
2023-05-23T22:42:27.611Z,57.57
2023-05-23T22:44:55.206Z,57.43
2023-05-23T22:47:23.775Z,57.44
2023-05-23T22:49:56.472Z,56.96
2023-05-23T22:52:24.905Z,56.58
2023-05-23T22:54:52.604Z,56.09
2023-05-23T22:57:20.496Z,56.13
2023-05-23T22:59:48.109Z,55.80
2023-05-23T23:02:16.068Z,55.73
2023-05-23T23:04:44.361Z,55.77
2023-05-23T23:07:12.242Z,55.99
2023-05-23T23:09:39.925Z,55.64
2023-05-23T23:12:07.822Z,55.15
2023-05-23T23:14:35.474Z,55.13
2023-05-23T23:17:03.605Z,54.85
2023-05-23T23:19:31.302Z,55.07
2023-05-23T23:21:59.209Z,55.36
2023-05-23T23:24:26.835Z,55.42
2023-05-23T23:26:54.728Z,55.56
2023-05-23T23:29:22.458Z,55.77
2023-05-23T23:31:50.600Z,55.66
2023-05-23T23:34:18.459Z,55.81
2023-05-23T23:36:46.421Z,55.60
2023-05-23T23:39:14.093Z,55.36
2023-05-23T23:41:42.051Z,55.32
2023-05-23T23:44:10.006Z,55.06
2023-05-23T23:46:38.163Z,54.77
2023-05-23T23:49:06.096Z,54.85
2023-05-23T23:51:34.053Z,54.29
2023-05-23T23:54:02.004Z,54.76
2023-05-23T23:56:30.031Z,54.70
2023-05-23T23:58:57.684Z,55.04
